Terminal Aerodrome Forecast
Issued by NWS

Home | Current Version | Previous Version | Graphics & Text | Print | Product List | Glossary On
Versions: 1 2 3 4 5 6 7 8 9 10 11 12 13 14 15
000
FTUS41 KCLE 232300
TAFFDY
TAF
KFDY 232339Z 2400/2424 05006KT P6SM OVC030
     FM240300 02005KT P6SM SCT035
     FM241600 02008KT P6SM SCT035=

USA.gov is the U.S. government's official web portal to all federal, state and local government web resources and services.